This is the latest recevied weather packets stored in our database for station/object W4ZHA. If no packets are shown the sender has not sent any weather packets the latest 10 day(s).
| Time | Temp. | Humidity | Pressure | Rain* | Wind** | Luminosity | Snow |
|---|---|---|---|---|---|---|---|
| 1777755642 | 18.89° C | 52% | 1014.4 hPa | 0 mm | - | 111 W/m² | - |
| 1777755338 | 19.44° C | 50% | 1014.4 hPa | 0 mm | - | 120 W/m² | - |
| 1777755036 | 18.89° C | 51% | 1014.4 hPa | 0 mm | - | 483 W/m² | - |
| 1777754732 | 21.11° C | 48% | 1014.4 hPa | 0 mm | - | 526 W/m² | - |
| 1777754430 | 20.56° C | 48% | 1014.4 hPa | 0 mm | - | 520 W/m² | - |
| 1777754127 | 19.44° C | 50% | 1014.4 hPa | 0 mm | - | 209 W/m² | - |
| 1777753824 | 20° C | 49% | 1014.8 hPa | 0 mm | - | 443 W/m² | - |
| 1777753520 | 20° C | 50% | 1014.4 hPa | 0 mm | - | 271 W/m² | - |
| 1777753219 | 19.44° C | 51% | 1014.4 hPa | 0 mm | - | 553 W/m² | - |
| 1777752914 | 21.11° C | 48% | 1014.8 hPa | 0 mm | - | 556 W/m² | - |
| 1777752611 | 21.11° C | 48% | 1014.4 hPa | 0 mm | - | 560 W/m² | - |
| 1777752307 | 20.56° C | 51% | 1014.4 hPa | 0 mm | - | 368 W/m² | - |
| 1777752005 | 18.89° C | 53% | 1014.4 hPa | 0 mm | - | 531 W/m² | - |
| 1777751702 | 18.89° C | 53% | 1014.8 hPa | 0 mm | - | 121 W/m² | - |
| 1777751398 | 19.44° C | 51% | 1014.4 hPa | 0 mm | - | 551 W/m² | - |
| 1777751095 | 20° C | 51% | 1014.8 hPa | 0 mm | - | 550 W/m² | - |
| 1777750790 | 19.44° C | 51% | 1014.8 hPa | 0 mm | - | 155 W/m² | - |
| 1777750488 | 20° C | 49% | 1014.8 hPa | 0 mm | - | 206 W/m² | - |
| 1777750184 | 20° C | 50% | 1014.8 hPa | 0 mm | - | 263 W/m² | - |
| 1777749881 | 20.56° C | 52% | 1014.8 hPa | 0 mm | - | 398 W/m² | - |
| 1777749578 | 19.44° C | 54% | 1014.8 hPa | 0 mm | - | 548 W/m² | - |
| 1777749275 | 19.44° C | 54% | 1015.1 hPa | 0 mm | - | 128 W/m² | - |
| 1777748973 | 18.33° C | 55% | 1014.8 hPa | 0 mm | - | 548 W/m² | - |
| 1777748670 | 18.89° C | 55% | 1014.8 hPa | 0 mm | - | 281 W/m² | - |
| 1777748366 | 18.89° C | 52% | 1014.8 hPa | 0 mm | - | 156 W/m² | - |
* Rain latest hour (hover to see other rain measurements)
** Current wind speed in m/s (hover to see current wind gust speed)